sensor_id;sensor_type;location;lat;lon;timestamp;temperature;humidity
44277;DHT22;29973;43.742;1.236;2022-10-23T00:00:36;17.80;99.90
44277;DHT22;29973;43.742;1.236;2022-10-23T00:03:03;17.70;99.90
44277;DHT22;29973;43.742;1.236;2022-10-23T00:05:29;17.70;99.90
44277;DHT22;29973;43.742;1.236;2022-10-23T00:07:58;17.70;99.90
44277;DHT22;29973;43.742;1.236;2022-10-23T00:10:24;17.60;99.90
44277;DHT22;29973;43.742;1.236;2022-10-23T00:12:51;17.50;99.90
44277;DHT22;29973;43.742;1.236;2022-10-23T00:15:18;17.70;99.90
44277;DHT22;29973;43.742;1.236;2022-10-23T00:17:44;17.90;99.90
44277;DHT22;29973;43.742;1.236;2022-10-23T00:20:10;18.10;99.90
44277;DHT22;29973;43.742;1.236;2022-10-23T00:22:38;18.10;99.90
44277;DHT22;29973;43.742;1.236;2022-10-23T00:25:05;18.10;99.90
44277;DHT22;29973;43.742;1.236;2022-10-23T00:27:32;18.10;99.90
44277;DHT22;29973;43.742;1.236;2022-10-23T00:29:58;18.00;99.90
44277;DHT22;29973;43.742;1.236;2022-10-23T00:32:23;18.00;99.90
44277;DHT22;29973;43.742;1.236;2022-10-23T00:34:49;18.10;99.90
44277;DHT22;29973;43.742;1.236;2022-10-23T00:37:15;18.20;99.90
44277;DHT22;29973;43.742;1.236;2022-10-23T00:39:41;18.10;99.90
44277;DHT22;29973;43.742;1.236;2022-10-23T00:42:06;18.20;99.90
44277;DHT22;29973;43.742;1.236;2022-10-23T00:46:58;17.80;99.90
44277;DHT22;29973;43.742;1.236;2022-10-23T00:49:24;17.70;99.90
44277;DHT22;29973;43.742;1.236;2022-10-23T00:51:57;17.70;99.90
44277;DHT22;29973;43.742;1.236;2022-10-23T00:54:25;17.70;99.90
44277;DHT22;29973;43.742;1.236;2022-10-23T00:57:00;17.50;99.90
44277;DHT22;29973;43.742;1.236;2022-10-23T00:59:27;17.60;99.90
44277;DHT22;29973;43.742;1.236;2022-10-23T01:01:53;17.50;99.90
44277;DHT22;29973;43.742;1.236;2022-10-23T01:04:19;17.50;99.90
44277;DHT22;29973;43.742;1.236;2022-10-23T01:21:16;17.80;99.90
44277;DHT22;29973;43.742;1.236;2022-10-23T01:29:17;17.70;99.90
44277;DHT22;29973;43.742;1.236;2022-10-23T01:32:04;17.90;99.90
44277;DHT22;29973;43.742;1.236;2022-10-23T01:37:13;17.60;99.90
44277;DHT22;29973;43.742;1.236;2022-10-23T01:39:46;17.70;99.90
44277;DHT22;29973;43.742;1.236;2022-10-23T01:42:17;17.80;99.90
44277;DHT22;29973;43.742;1.236;2022-10-23T01:44:51;18.00;99.90
44277;DHT22;29973;43.742;1.236;2022-10-23T01:47:25;18.00;99.90
44277;DHT22;29973;43.742;1.236;2022-10-23T01:49:52;17.80;99.90
44277;DHT22;29973;43.742;1.236;2022-10-23T01:52:20;17.80;99.90
44277;DHT22;29973;43.742;1.236;2022-10-23T01:54:47;17.90;99.90
44277;DHT22;29973;43.742;1.236;2022-10-23T01:57:16;17.90;99.90
44277;DHT22;29973;43.742;1.236;2022-10-23T01:59:50;18.00;99.90
44277;DHT22;29973;43.742;1.236;2022-10-23T02:02:18;18.00;99.90
44277;DHT22;29973;43.742;1.236;2022-10-23T02:07:20;17.90;99.90
44277;DHT22;29973;43.742;1.236;2022-10-23T02:09:46;17.80;99.90
44277;DHT22;29973;43.742;1.236;2022-10-23T02:20:34;18.30;99.90
44277;DHT22;29973;43.742;1.236;2022-10-23T02:26:02;18.10;99.90
44277;DHT22;29973;43.742;1.236;2022-10-23T02:28:37;18.20;99.90
44277;DHT22;29973;43.742;1.236;2022-10-23T02:31:05;18.20;99.90
44277;DHT22;29973;43.742;1.236;2022-10-23T02:33:33;18.10;99.90
44277;DHT22;29973;43.742;1.236;2022-10-23T02:36:00;18.10;99.90
44277;DHT22;29973;43.742;1.236;2022-10-23T02:38:37;18.10;99.90
44277;DHT22;29973;43.742;1.236;2022-10-23T02:49:24;18.00;99.90
44277;DHT22;29973;43.742;1.236;2022-10-23T02:58:06;18.00;99.90
44277;DHT22;29973;43.742;1.236;2022-10-23T03:00:36;17.80;99.90
44277;DHT22;29973;43.742;1.236;2022-10-23T03:03:10;17.60;99.90
44277;DHT22;29973;43.742;1.236;2022-10-23T03:05:38;17.60;99.90
44277;DHT22;29973;43.742;1.236;2022-10-23T03:08:08;17.60;99.90
44277;DHT22;29973;43.742;1.236;2022-10-23T03:10:34;17.70;99.90
44277;DHT22;29973;43.742;1.236;2022-10-23T03:13:00;17.90;99.90
44277;DHT22;29973;43.742;1.236;2022-10-23T03:15:25;17.80;99.90
44277;DHT22;29973;43.742;1.236;2022-10-23T03:17:51;17.70;99.90
44277;DHT22;29973;43.742;1.236;2022-10-23T03:20:17;17.70;99.90
44277;DHT22;29973;43.742;1.236;2022-10-23T03:22:43;17.80;99.90
44277;DHT22;29973;43.742;1.236;2022-10-23T03:25:09;18.00;99.90
44277;DHT22;29973;43.742;1.236;2022-10-23T03:27:35;17.90;99.90
44277;DHT22;29973;43.742;1.236;2022-10-23T03:30:01;17.90;99.90
44277;DHT22;29973;43.742;1.236;2022-10-23T03:32:27;17.90;99.90
44277;DHT22;29973;43.742;1.236;2022-10-23T03:34:52;17.80;99.90
44277;DHT22;29973;43.742;1.236;2022-10-23T03:37:18;17.70;99.90
44277;DHT22;29973;43.742;1.236;2022-10-23T03:39:44;17.70;99.90
44277;DHT22;29973;43.742;1.236;2022-10-23T03:42:09;17.70;99.90
44277;DHT22;29973;43.742;1.236;2022-10-23T03:44:35;17.50;99.90
44277;DHT22;29973;43.742;1.236;2022-10-23T03:47:01;17.60;99.90
44277;DHT22;29973;43.742;1.236;2022-10-23T03:49:27;17.60;99.90
44277;DHT22;29973;43.742;1.236;2022-10-23T03:51:52;17.70;99.90
44277;DHT22;29973;43.742;1.236;2022-10-23T03:54:20;17.60;99.90
44277;DHT22;29973;43.742;1.236;2022-10-23T03:56:46;17.60;99.90
44277;DHT22;29973;43.742;1.236;2022-10-23T03:59:11;17.70;99.90
44277;DHT22;29973;43.742;1.236;2022-10-23T04:01:37;17.80;99.90
44277;DHT22;29973;43.742;1.236;2022-10-23T04:04:03;17.80;99.90
44277;DHT22;29973;43.742;1.236;2022-10-23T04:06:28;17.70;99.90
44277;DHT22;29973;43.742;1.236;2022-10-23T04:08:54;17.40;99.90
44277;DHT22;29973;43.742;1.236;2022-10-23T04:11:20;17.50;99.90
44277;DHT22;29973;43.742;1.236;2022-10-23T04:13:45;17.50;99.90
44277;DHT22;29973;43.742;1.236;2022-10-23T04:16:11;17.50;99.90
44277;DHT22;29973;43.742;1.236;2022-10-23T04:18:39;17.40;99.90
44277;DHT22;29973;43.742;1.236;2022-10-23T04:21:05;17.40;99.90
44277;DHT22;29973;43.742;1.236;2022-10-23T04:23:31;17.50;99.90
44277;DHT22;29973;43.742;1.236;2022-10-23T04:25:56;17.60;99.90
44277;DHT22;29973;43.742;1.236;2022-10-23T04:28:23;17.60;99.90
44277;DHT22;29973;43.742;1.236;2022-10-23T04:30:48;17.60;99.90
44277;DHT22;29973;43.742;1.236;2022-10-23T04:33:14;17.70;99.90
44277;DHT22;29973;43.742;1.236;2022-10-23T04:35:40;17.70;99.90
44277;DHT22;29973;43.742;1.236;2022-10-23T04:38:06;17.60;99.90
44277;DHT22;29973;43.742;1.236;2022-10-23T04:40:31;17.80;99.90
44277;DHT22;29973;43.742;1.236;2022-10-23T04:42:57;17.80;99.90
44277;DHT22;29973;43.742;1.236;2022-10-23T04:45:23;17.70;99.90
44277;DHT22;29973;43.742;1.236;2022-10-23T04:47:48;17.80;99.90
44277;DHT22;29973;43.742;1.236;2022-10-23T04:50:15;17.70;99.90
44277;DHT22;29973;43.742;1.236;2022-10-23T04:52:41;17.80;99.90
44277;DHT22;29973;43.742;1.236;2022-10-23T04:55:07;17.90;99.90
44277;DHT22;29973;43.742;1.236;2022-10-23T04:57:33;18.00;99.90
44277;DHT22;29973;43.742;1.236;2022-10-23T04:59:59;17.80;99.90
44277;DHT22;29973;43.742;1.236;2022-10-23T05:02:25;18.00;99.90
44277;DHT22;29973;43.742;1.236;2022-10-23T05:04:52;18.30;99.90
44277;DHT22;29973;43.742;1.236;2022-10-23T05:07:17;18.30;99.90
44277;DHT22;29973;43.742;1.236;2022-10-23T05:09:43;18.30;99.90
44277;DHT22;29973;43.742;1.236;2022-10-23T05:12:09;18.30;99.90
44277;DHT22;29973;43.742;1.236;2022-10-23T05:14:34;18.30;99.90
44277;DHT22;29973;43.742;1.236;2022-10-23T05:17:05;18.10;99.90
44277;DHT22;29973;43.742;1.236;2022-10-23T05:19:37;17.90;99.90
44277;DHT22;29973;43.742;1.236;2022-10-23T05:22:04;17.80;99.90
44277;DHT22;29973;43.742;1.236;2022-10-23T05:24:30;17.80;99.90
44277;DHT22;29973;43.742;1.236;2022-10-23T05:26:56;17.60;99.90
44277;DHT22;29973;43.742;1.236;2022-10-23T05:29:22;17.40;99.90
44277;DHT22;29973;43.742;1.236;2022-10-23T05:31:50;17.50;99.90
44277;DHT22;29973;43.742;1.236;2022-10-23T05:34:19;17.50;99.90
44277;DHT22;29973;43.742;1.236;2022-10-23T05:36:47;17.60;99.90
44277;DHT22;29973;43.742;1.236;2022-10-23T05:39:13;17.50;99.90
44277;DHT22;29973;43.742;1.236;2022-10-23T05:41:39;17.70;99.90
44277;DHT22;29973;43.742;1.236;2022-10-23T05:44:04;18.10;99.90
44277;DHT22;29973;43.742;1.236;2022-10-23T05:46:30;18.40;99.90
44277;DHT22;29973;43.742;1.236;2022-10-23T05:48:56;18.40;99.90
44277;DHT22;29973;43.742;1.236;2022-10-23T05:51:22;18.40;99.90
44277;DHT22;29973;43.742;1.236;2022-10-23T05:53:49;18.80;99.90
44277;DHT22;29973;43.742;1.236;2022-10-23T05:56:14;19.30;99.90
44277;DHT22;29973;43.742;1.236;2022-10-23T05:58:40;19.60;99.90
44277;DHT22;29973;43.742;1.236;2022-10-23T06:01:08;19.60;99.90
44277;DHT22;29973;43.742;1.236;2022-10-23T06:03:35;19.70;99.90
44277;DHT22;29973;43.742;1.236;2022-10-23T06:06:01;19.60;99.90
44277;DHT22;29973;43.742;1.236;2022-10-23T06:08:27;19.40;99.90
44277;DHT22;29973;43.742;1.236;2022-10-23T06:10:52;19.50;99.90
44277;DHT22;29973;43.742;1.236;2022-10-23T06:13:18;19.50;99.90
44277;DHT22;29973;43.742;1.236;2022-10-23T06:15:44;19.40;99.90
44277;DHT22;29973;43.742;1.236;2022-10-23T06:18:10;19.60;99.90
44277;DHT22;29973;43.742;1.236;2022-10-23T06:20:37;19.60;99.90
44277;DHT22;29973;43.742;1.236;2022-10-23T06:23:04;19.50;99.90
44277;DHT22;29973;43.742;1.236;2022-10-23T06:25:31;19.50;99.90
44277;DHT22;29973;43.742;1.236;2022-10-23T06:27:57;19.50;99.90
44277;DHT22;29973;43.742;1.236;2022-10-23T06:30:23;19.50;99.90
44277;DHT22;29973;43.742;1.236;2022-10-23T06:32:49;19.60;99.90
44277;DHT22;29973;43.742;1.236;2022-10-23T06:35:15;19.30;99.90
44277;DHT22;29973;43.742;1.236;2022-10-23T06:37:41;19.10;99.90
44277;DHT22;29973;43.742;1.236;2022-10-23T06:40:07;19.30;99.90
44277;DHT22;29973;43.742;1.236;2022-10-23T06:42:33;19.30;99.90
44277;DHT22;29973;43.742;1.236;2022-10-23T06:44:59;19.40;99.90
44277;DHT22;29973;43.742;1.236;2022-10-23T06:47:25;19.40;99.90
44277;DHT22;29973;43.742;1.236;2022-10-23T06:49:51;19.40;99.90
44277;DHT22;29973;43.742;1.236;2022-10-23T06:52:16;19.50;99.90
44277;DHT22;29973;43.742;1.236;2022-10-23T06:54:42;19.50;99.90
44277;DHT22;29973;43.742;1.236;2022-10-23T06:57:08;19.50;99.90
44277;DHT22;29973;43.742;1.236;2022-10-23T06:59:33;19.70;99.90
44277;DHT22;29973;43.742;1.236;2022-10-23T07:01:59;19.90;99.90
44277;DHT22;29973;43.742;1.236;2022-10-23T07:04:26;19.90;99.90
44277;DHT22;29973;43.742;1.236;2022-10-23T07:06:55;19.70;99.90
44277;DHT22;29973;43.742;1.236;2022-10-23T07:09:21;19.60;99.90
44277;DHT22;29973;43.742;1.236;2022-10-23T07:11:47;19.60;99.90
44277;DHT22;29973;43.742;1.236;2022-10-23T07:14:13;19.60;99.90
44277;DHT22;29973;43.742;1.236;2022-10-23T07:16:38;19.50;99.90
44277;DHT22;29973;43.742;1.236;2022-10-23T07:19:04;19.40;99.90
44277;DHT22;29973;43.742;1.236;2022-10-23T07:21:32;19.40;99.90
44277;DHT22;29973;43.742;1.236;2022-10-23T07:24:02;19.50;99.90
44277;DHT22;29973;43.742;1.236;2022-10-23T07:26:29;19.50;99.90
44277;DHT22;29973;43.742;1.236;2022-10-23T07:28:55;19.60;99.90
44277;DHT22;29973;43.742;1.236;2022-10-23T07:31:21;19.70;99.90
44277;DHT22;29973;43.742;1.236;2022-10-23T07:33:48;19.80;99.90
44277;DHT22;29973;43.742;1.236;2022-10-23T07:36:13;19.90;99.90
44277;DHT22;29973;43.742;1.236;2022-10-23T07:38:39;19.80;99.90
44277;DHT22;29973;43.742;1.236;2022-10-23T07:41:06;19.80;99.90
44277;DHT22;29973;43.742;1.236;2022-10-23T07:43:31;19.80;99.90
44277;DHT22;29973;43.742;1.236;2022-10-23T07:46:01;19.80;99.90
44277;DHT22;29973;43.742;1.236;2022-10-23T07:48:27;19.90;99.90
44277;DHT22;29973;43.742;1.236;2022-10-23T07:50:57;19.80;99.90
44277;DHT22;29973;43.742;1.236;2022-10-23T07:53:26;19.80;99.90
44277;DHT22;29973;43.742;1.236;2022-10-23T07:55:56;19.70;99.90
44277;DHT22;29973;43.742;1.236;2022-10-23T07:58:23;19.70;99.90
44277;DHT22;29973;43.742;1.236;2022-10-23T08:00:59;19.90;99.90
44277;DHT22;29973;43.742;1.236;2022-10-23T08:03:27;19.90;99.90
44277;DHT22;29973;43.742;1.236;2022-10-23T08:05:53;19.90;99.90
44277;DHT22;29973;43.742;1.236;2022-10-23T08:08:20;19.90;99.90
44277;DHT22;29973;43.742;1.236;2022-10-23T08:10:48;20.00;99.90
44277;DHT22;29973;43.742;1.236;2022-10-23T08:13:14;20.00;99.90
44277;DHT22;29973;43.742;1.236;2022-10-23T08:15:41;20.00;99.90
44277;DHT22;29973;43.742;1.236;2022-10-23T08:18:08;20.00;99.90
44277;DHT22;29973;43.742;1.236;2022-10-23T08:20:52;20.10;99.90
44277;DHT22;29973;43.742;1.236;2022-10-23T08:23:18;20.30;99.90
44277;DHT22;29973;43.742;1.236;2022-10-23T08:25:45;20.60;99.90
44277;DHT22;29973;43.742;1.236;2022-10-23T08:28:10;20.80;99.90
44277;DHT22;29973;43.742;1.236;2022-10-23T08:30:37;20.80;99.90
44277;DHT22;29973;43.742;1.236;2022-10-23T08:33:04;21.10;99.90
44277;DHT22;29973;43.742;1.236;2022-10-23T08:35:30;21.10;99.90
44277;DHT22;29973;43.742;1.236;2022-10-23T08:37:55;21.20;99.90
44277;DHT22;29973;43.742;1.236;2022-10-23T08:40:23;21.30;99.90
44277;DHT22;29973;43.742;1.236;2022-10-23T08:43:45;21.50;99.90
44277;DHT22;29973;43.742;1.236;2022-10-23T08:45:48;21.70;99.90
44277;DHT22;29973;43.742;1.236;2022-10-23T08:48:19;21.90;99.90
44277;DHT22;29973;43.742;1.236;2022-10-23T08:50:52;22.10;99.90
44277;DHT22;29973;43.742;1.236;2022-10-23T08:53:32;22.30;99.90
44277;DHT22;29973;43.742;1.236;2022-10-23T08:56:11;22.30;99.90
44277;DHT22;29973;43.742;1.236;2022-10-23T09:01:41;22.40;99.90
44277;DHT22;29973;43.742;1.236;2022-10-23T09:04:11;22.40;99.90
44277;DHT22;29973;43.742;1.236;2022-10-23T09:12:06;22.50;99.90
44277;DHT22;29973;43.742;1.236;2022-10-23T09:15:03;22.60;99.90
44277;DHT22;29973;43.742;1.236;2022-10-23T09:17:33;22.70;99.90
44277;DHT22;29973;43.742;1.236;2022-10-23T09:20:20;22.70;99.90
44277;DHT22;29973;43.742;1.236;2022-10-23T09:22:49;22.80;99.90
44277;DHT22;29973;43.742;1.236;2022-10-23T09:25:36;22.90;99.90
44277;DHT22;29973;43.742;1.236;2022-10-23T09:28:03;22.80;99.90
44277;DHT22;29973;43.742;1.236;2022-10-23T09:30:36;23.00;99.90
44277;DHT22;29973;43.742;1.236;2022-10-23T09:41:23;24.80;99.90
44277;DHT22;29973;43.742;1.236;2022-10-23T09:46:41;25.60;99.90
44277;DHT22;29973;43.742;1.236;2022-10-23T09:49:19;26.10;99.90
44277;DHT22;29973;43.742;1.236;2022-10-23T09:51:55;25.50;99.90
44277;DHT22;29973;43.742;1.236;2022-10-23T09:54:23;24.60;99.90
44277;DHT22;29973;43.742;1.236;2022-10-23T09:56:49;24.30;99.90
44277;DHT22;29973;43.742;1.236;2022-10-23T09:59:29;24.20;99.90
44277;DHT22;29973;43.742;1.236;2022-10-23T10:02:00;24.10;99.90
44277;DHT22;29973;43.742;1.236;2022-10-23T10:04:39;23.80;99.90
44277;DHT22;29973;43.742;1.236;2022-10-23T10:07:25;23.60;99.90
44277;DHT22;29973;43.742;1.236;2022-10-23T10:09:53;23.50;99.90
44277;DHT22;29973;43.742;1.236;2022-10-23T10:12:41;23.50;99.90
44277;DHT22;29973;43.742;1.236;2022-10-23T10:15:27;23.70;99.90
44277;DHT22;29973;43.742;1.236;2022-10-23T10:18:01;23.70;99.90
44277;DHT22;29973;43.742;1.236;2022-10-23T10:20:42;24.10;99.90
44277;DHT22;29973;43.742;1.236;2022-10-23T10:32:02;25.30;99.90
44277;DHT22;29973;43.742;1.236;2022-10-23T10:40:27;25.10;98.20
44277;DHT22;29973;43.742;1.236;2022-10-23T10:45:59;25.50;96.20
44277;DHT22;29973;43.742;1.236;2022-10-23T10:48:48;25.50;95.30
44277;DHT22;29973;43.742;1.236;2022-10-23T10:51:39;25.70;94.70
44277;DHT22;29973;43.742;1.236;2022-10-23T10:56:41;26.00;93.60
44277;DHT22;29973;43.742;1.236;2022-10-23T10:59:26;26.20;93.40
44277;DHT22;29973;43.742;1.236;2022-10-23T11:02:20;26.40;92.50
44277;DHT22;29973;43.742;1.236;2022-10-23T11:04:56;26.60;91.90
44277;DHT22;29973;43.742;1.236;2022-10-23T11:07:27;27.00;91.10
44277;DHT22;29973;43.742;1.236;2022-10-23T11:09:58;27.30;90.20
44277;DHT22;29973;43.742;1.236;2022-10-23T11:12:26;28.60;86.20
44277;DHT22;29973;43.742;1.236;2022-10-23T11:14:52;30.30;78.20
44277;DHT22;29973;43.742;1.236;2022-10-23T11:17:29;29.90;78.20
44277;DHT22;29973;43.742;1.236;2022-10-23T11:30:27;30.20;55.90
44277;DHT22;29973;43.742;1.236;2022-10-23T11:35:41;31.30;50.40
44277;DHT22;29973;43.742;1.236;2022-10-23T11:40:51;32.10;49.40
44277;DHT22;29973;43.742;1.236;2022-10-23T11:43:31;32.60;47.70
44277;DHT22;29973;43.742;1.236;2022-10-23T11:46:27;32.60;46.40
44277;DHT22;29973;43.742;1.236;2022-10-23T11:48:57;31.40;46.80
44277;DHT22;29973;43.742;1.236;2022-10-23T11:51:37;32.30;47.90
44277;DHT22;29973;43.742;1.236;2022-10-23T11:57:03;29.80;49.50
44277;DHT22;29973;43.742;1.236;2022-10-23T12:04:52;28.00;51.70
44277;DHT22;29973;43.742;1.236;2022-10-23T12:10:04;27.70;52.40
44277;DHT22;29973;43.742;1.236;2022-10-23T12:12:33;27.60;52.40
44277;DHT22;29973;43.742;1.236;2022-10-23T12:15:18;27.50;52.70
44277;DHT22;29973;43.742;1.236;2022-10-23T12:17:46;27.40;53.20
44277;DHT22;29973;43.742;1.236;2022-10-23T12:25:12;27.40;51.80
44277;DHT22;29973;43.742;1.236;2022-10-23T12:30:20;27.50;52.90
44277;DHT22;29973;43.742;1.236;2022-10-23T12:38:31;27.30;54.80
44277;DHT22;29973;43.742;1.236;2022-10-23T12:41:18;27.20;55.50
44277;DHT22;29973;43.742;1.236;2022-10-23T12:43:54;27.10;56.70
44277;DHT22;29973;43.742;1.236;2022-10-23T12:48:57;26.80;56.80
44277;DHT22;29973;43.742;1.236;2022-10-23T12:51:31;26.80;56.30
44277;DHT22;29973;43.742;1.236;2022-10-23T12:53:57;26.90;56.30
44277;DHT22;29973;43.742;1.236;2022-10-23T12:56:24;27.00;56.70
44277;DHT22;29973;43.742;1.236;2022-10-23T12:58:57;27.00;56.70
44277;DHT22;29973;43.742;1.236;2022-10-23T13:01:32;27.00;57.10
44277;DHT22;29973;43.742;1.236;2022-10-23T13:04:07;27.00;55.50
44277;DHT22;29973;43.742;1.236;2022-10-23T13:06:37;27.10;57.20
44277;DHT22;29973;43.742;1.236;2022-10-23T13:09:04;27.10;56.30
44277;DHT22;29973;43.742;1.236;2022-10-23T13:11:31;27.10;56.20
44277;DHT22;29973;43.742;1.236;2022-10-23T13:13:57;27.10;56.20
44277;DHT22;29973;43.742;1.236;2022-10-23T13:16:24;27.00;56.00
44277;DHT22;29973;43.742;1.236;2022-10-23T13:18:50;26.90;56.30
44277;DHT22;29973;43.742;1.236;2022-10-23T13:21:22;26.80;55.30
44277;DHT22;29973;43.742;1.236;2022-10-23T13:23:49;26.90;55.60
44277;DHT22;29973;43.742;1.236;2022-10-23T13:26:39;26.90;55.60
44277;DHT22;29973;43.742;1.236;2022-10-23T13:31:43;27.10;55.40
44277;DHT22;29973;43.742;1.236;2022-10-23T13:34:29;27.50;55.90
44277;DHT22;29973;43.742;1.236;2022-10-23T13:37:22;27.70;54.90
44277;DHT22;29973;43.742;1.236;2022-10-23T13:40:05;27.80;55.00
44277;DHT22;29973;43.742;1.236;2022-10-23T13:42:34;27.80;55.80
44277;DHT22;29973;43.742;1.236;2022-10-23T13:45:00;27.90;56.70
44277;DHT22;29973;43.742;1.236;2022-10-23T13:47:25;27.80;55.20
44277;DHT22;29973;43.742;1.236;2022-10-23T13:49:51;27.90;57.30
44277;DHT22;29973;43.742;1.236;2022-10-23T13:52:19;27.70;55.80
44277;DHT22;29973;43.742;1.236;2022-10-23T13:54:46;27.50;55.00
44277;DHT22;29973;43.742;1.236;2022-10-23T13:57:13;27.40;54.90
44277;DHT22;29973;43.742;1.236;2022-10-23T13:59:39;28.00;54.30
44277;DHT22;29973;43.742;1.236;2022-10-23T14:02:21;28.00;54.40
44277;DHT22;29973;43.742;1.236;2022-10-23T14:04:49;27.90;55.20
44277;DHT22;29973;43.742;1.236;2022-10-23T14:07:15;28.00;55.40
44277;DHT22;29973;43.742;1.236;2022-10-23T14:09:40;27.90;54.60
44277;DHT22;29973;43.742;1.236;2022-10-23T14:12:06;27.50;54.30
44277;DHT22;29973;43.742;1.236;2022-10-23T14:14:32;27.40;54.80
44277;DHT22;29973;43.742;1.236;2022-10-23T14:16:58;27.30;54.80
44277;DHT22;29973;43.742;1.236;2022-10-23T14:19:24;27.20;56.90
44277;DHT22;29973;43.742;1.236;2022-10-23T14:21:50;27.10;55.80
44277;DHT22;29973;43.742;1.236;2022-10-23T14:24:15;27.10;56.40
44277;DHT22;29973;43.742;1.236;2022-10-23T14:26:41;27.20;55.10
44277;DHT22;29973;43.742;1.236;2022-10-23T14:29:07;27.30;56.80
44277;DHT22;29973;43.742;1.236;2022-10-23T14:31:33;27.30;56.00
44277;DHT22;29973;43.742;1.236;2022-10-23T14:33:59;27.10;55.50
44277;DHT22;29973;43.742;1.236;2022-10-23T14:36:27;27.10;55.60
44277;DHT22;29973;43.742;1.236;2022-10-23T14:38:58;26.90;55.90
44277;DHT22;29973;43.742;1.236;2022-10-23T14:41:25;26.70;57.10
44277;DHT22;29973;43.742;1.236;2022-10-23T14:43:52;26.70;55.90
44277;DHT22;29973;43.742;1.236;2022-10-23T14:46:21;26.70;56.20
44277;DHT22;29973;43.742;1.236;2022-10-23T14:48:47;26.70;57.80
44277;DHT22;29973;43.742;1.236;2022-10-23T14:51:33;26.70;58.00
44277;DHT22;29973;43.742;1.236;2022-10-23T14:54:03;26.50;58.50
44277;DHT22;29973;43.742;1.236;2022-10-23T14:56:30;26.40;57.60
44277;DHT22;29973;43.742;1.236;2022-10-23T14:58:56;26.20;57.60
44277;DHT22;29973;43.742;1.236;2022-10-23T15:01:28;26.10;59.40
44277;DHT22;29973;43.742;1.236;2022-10-23T15:03:54;25.90;59.30
44277;DHT22;29973;43.742;1.236;2022-10-23T15:06:21;25.90;59.90
44277;DHT22;29973;43.742;1.236;2022-10-23T15:08:51;25.80;59.90
44277;DHT22;29973;43.742;1.236;2022-10-23T15:11:19;25.60;58.90
44277;DHT22;29973;43.742;1.236;2022-10-23T15:13:45;25.70;59.50
44277;DHT22;29973;43.742;1.236;2022-10-23T15:16:11;25.50;60.50
44277;DHT22;29973;43.742;1.236;2022-10-23T15:18:37;25.40;61.60
44277;DHT22;29973;43.742;1.236;2022-10-23T15:21:04;25.10;67.20
44277;DHT22;29973;43.742;1.236;2022-10-23T15:23:35;24.60;73.00
44277;DHT22;29973;43.742;1.236;2022-10-23T15:26:03;24.30;71.80
44277;DHT22;29973;43.742;1.236;2022-10-23T15:28:30;24.10;75.30
44277;DHT22;29973;43.742;1.236;2022-10-23T15:30:56;24.00;76.20
44277;DHT22;29973;43.742;1.236;2022-10-23T15:33:23;23.80;75.00
44277;DHT22;29973;43.742;1.236;2022-10-23T15:35:50;23.70;78.40
44277;DHT22;29973;43.742;1.236;2022-10-23T15:38:16;23.60;79.40
44277;DHT22;29973;43.742;1.236;2022-10-23T15:40:42;23.50;77.40
44277;DHT22;29973;43.742;1.236;2022-10-23T15:43:09;23.40;78.50
44277;DHT22;29973;43.742;1.236;2022-10-23T15:45:35;23.40;79.50
44277;DHT22;29973;43.742;1.236;2022-10-23T15:48:01;23.40;81.40
44277;DHT22;29973;43.742;1.236;2022-10-23T15:50:26;23.30;82.60
44277;DHT22;29973;43.742;1.236;2022-10-23T15:52:52;23.30;83.30
44277;DHT22;29973;43.742;1.236;2022-10-23T15:55:19;23.20;83.70
44277;DHT22;29973;43.742;1.236;2022-10-23T15:57:45;23.30;84.10
44277;DHT22;29973;43.742;1.236;2022-10-23T16:00:11;23.20;83.90
44277;DHT22;29973;43.742;1.236;2022-10-23T16:02:37;23.00;84.90
44277;DHT22;29973;43.742;1.236;2022-10-23T16:05:04;22.90;84.90
44277;DHT22;29973;43.742;1.236;2022-10-23T16:07:29;22.70;86.40
44277;DHT22;29973;43.742;1.236;2022-10-23T16:09:55;22.70;86.10
44277;DHT22;29973;43.742;1.236;2022-10-23T16:12:21;22.60;87.80
44277;DHT22;29973;43.742;1.236;2022-10-23T16:14:47;22.50;88.90
44277;DHT22;29973;43.742;1.236;2022-10-23T16:17:13;22.50;88.40
44277;DHT22;29973;43.742;1.236;2022-10-23T16:19:39;22.60;90.20
44277;DHT22;29973;43.742;1.236;2022-10-23T16:22:06;22.50;89.00
44277;DHT22;29973;43.742;1.236;2022-10-23T16:24:32;22.50;90.50
44277;DHT22;29973;43.742;1.236;2022-10-23T16:26:58;22.40;89.70
44277;DHT22;29973;43.742;1.236;2022-10-23T16:29:25;22.30;90.80
44277;DHT22;29973;43.742;1.236;2022-10-23T16:31:52;22.30;90.80
44277;DHT22;29973;43.742;1.236;2022-10-23T16:34:18;22.20;91.60
44277;DHT22;29973;43.742;1.236;2022-10-23T16:36:45;22.20;91.10
44277;DHT22;29973;43.742;1.236;2022-10-23T16:39:13;21.90;91.00
44277;DHT22;29973;43.742;1.236;2022-10-23T16:41:39;21.70;91.20
44277;DHT22;29973;43.742;1.236;2022-10-23T16:44:05;21.60;91.90
44277;DHT22;29973;43.742;1.236;2022-10-23T16:46:31;21.40;91.70
44277;DHT22;29973;43.742;1.236;2022-10-23T16:48:57;21.20;92.10
44277;DHT22;29973;43.742;1.236;2022-10-23T16:51:25;21.00;93.10
44277;DHT22;29973;43.742;1.236;2022-10-23T16:53:52;20.70;94.10
44277;DHT22;29973;43.742;1.236;2022-10-23T16:56:21;20.50;95.30
44277;DHT22;29973;43.742;1.236;2022-10-23T16:58:47;20.30;96.00
44277;DHT22;29973;43.742;1.236;2022-10-23T17:01:18;20.00;96.10
44277;DHT22;29973;43.742;1.236;2022-10-23T17:03:46;19.70;95.50
44277;DHT22;29973;43.742;1.236;2022-10-23T17:06:17;19.60;96.30
44277;DHT22;29973;43.742;1.236;2022-10-23T17:08:43;19.50;96.40
44277;DHT22;29973;43.742;1.236;2022-10-23T17:11:32;19.40;96.50
44277;DHT22;29973;43.742;1.236;2022-10-23T17:13:59;19.00;97.20
44277;DHT22;29973;43.742;1.236;2022-10-23T17:16:30;18.90;97.60
44277;DHT22;29973;43.742;1.236;2022-10-23T17:18:56;18.60;97.90
44277;DHT22;29973;43.742;1.236;2022-10-23T17:21:23;18.50;96.90
44277;DHT22;29973;43.742;1.236;2022-10-23T17:23:49;18.50;96.40
44277;DHT22;29973;43.742;1.236;2022-10-23T17:26:18;18.40;98.00
44277;DHT22;29973;43.742;1.236;2022-10-23T17:28:44;18.30;98.20
44277;DHT22;29973;43.742;1.236;2022-10-23T17:31:31;18.00;99.20
44277;DHT22;29973;43.742;1.236;2022-10-23T17:33:59;17.80;99.90
44277;DHT22;29973;43.742;1.236;2022-10-23T17:36:28;17.80;99.90
44277;DHT22;29973;43.742;1.236;2022-10-23T17:38:54;17.60;99.90
44277;DHT22;29973;43.742;1.236;2022-10-23T17:41:22;17.50;99.90
44277;DHT22;29973;43.742;1.236;2022-10-23T17:43:48;17.30;99.90
44277;DHT22;29973;43.742;1.236;2022-10-23T17:46:15;17.40;99.90
44277;DHT22;29973;43.742;1.236;2022-10-23T17:48:41;17.40;99.90
44277;DHT22;29973;43.742;1.236;2022-10-23T17:51:12;17.30;99.90
44277;DHT22;29973;43.742;1.236;2022-10-23T17:53:40;17.40;99.90
44277;DHT22;29973;43.742;1.236;2022-10-23T17:56:08;17.30;99.90
44277;DHT22;29973;43.742;1.236;2022-10-23T17:58:35;17.30;99.90